Time,TemperatureF,DewpointF,PressureIn,WindDirection,WindDirectionDegrees,WindSpeedMPH,WindSpeedGustMPH,Humidity,HourlyPrecipIn,Conditions,Clouds,dailyrainin,SoftwareType,DateUTC
2013-06-07 00:04:00,53.4,48.1,29.88,SE,135,1.6,2.5,82,0.00,,---,0.00,VWS V14.01,2013-06-07 07:04:00,
2013-06-07 00:09:00,53.6,48.2,29.88,ENE,68,1.6,2.0,82,0.00,,---,0.00,VWS V14.01,2013-06-07 07:09:00,
2013-06-07 00:14:00,53.4,48.1,29.88,South,180,2.0,2.0,82,0.00,,---,0.00,VWS V14.01,2013-06-07 07:14:00,
2013-06-07 00:19:00,53.2,47.9,29.88,South,180,0.0,1.3,82,0.00,,---,0.00,VWS V14.01,2013-06-07 07:19:00,
2013-06-07 00:24:00,53.4,48.1,29.88,SE,135,0.0,1.1,82,0.00,,---,0.00,VWS V14.01,2013-06-07 07:24:00,
2013-06-07 00:29:00,53.2,48.2,29.88,South,180,0.0,1.1,83,0.00,,---,0.00,VWS V14.01,2013-06-07 07:29:00,
2013-06-07 00:34:00,53.2,48.2,29.85,SW,225,0.0,0.0,83,0.00,,---,0.00,VWS V14.01,2013-06-07 07:34:00,
2013-06-07 00:39:00,53.2,48.2,29.85,West,270,0.0,2.0,83,0.00,,---,0.00,VWS V14.01,2013-06-07 07:39:00,
2013-06-07 00:44:00,53.1,48.4,29.85,SW,225,0.9,2.0,84,0.00,,---,0.00,VWS V14.01,2013-06-07 07:44:00,
2013-06-07 00:49:00,53.2,48.2,29.85,WNW,292,2.2,2.5,83,0.00,,---,0.00,VWS V14.01,2013-06-07 07:49:00,
2013-06-07 00:54:00,53.1,48.4,29.85,West,270,0.9,2.0,84,0.00,,---,0.00,VWS V14.01,2013-06-07 07:54:00,
2013-06-07 00:59:00,52.7,48.0,29.85,WNW,292,1.6,1.6,84,0.00,,---,0.00,VWS V14.01,2013-06-07 07:59:00,
2013-06-07 01:05:00,52.7,48.0,29.85,West,270,1.6,1.6,84,0.00,,---,0.00,VWS V14.01,2013-06-07 08:05:00,
2013-06-07 01:10:00,52.9,48.2,29.85,West,270,0.0,2.5,84,0.00,,---,0.00,VWS V14.01,2013-06-07 08:10:00,
2013-06-07 01:15:00,53.1,48.4,29.85,South,180,0.0,1.6,84,0.00,,---,0.00,VWS V14.01,2013-06-07 08:15:00,
2013-06-07 01:20:00,52.7,48.3,29.85,South,180,0.0,0.0,85,0.00,,---,0.00,VWS V14.01,2013-06-07 08:20:00,
2013-06-07 01:25:00,53.2,48.5,29.85,South,180,1.6,1.6,84,0.00,,---,0.00,VWS V14.01,2013-06-07 08:25:00,
2013-06-07 01:30:00,53.1,48.4,29.85,South,180,0.0,2.2,84,0.00,,---,0.00,VWS V14.01,2013-06-07 08:30:00,
2013-06-07 01:35:00,53.1,48.4,29.85,SSE,158,1.6,2.5,84,0.00,,---,0.00,VWS V14.01,2013-06-07 08:35:00,
2013-06-07 01:40:00,53.2,48.5,29.85,South,180,1.3,2.5,84,0.00,,---,0.00,VWS V14.01,2013-06-07 08:40:00,
2013-06-07 01:45:00,52.7,47.7,29.85,SSE,158,2.2,2.2,83,0.00,,---,0.00,VWS V14.01,2013-06-07 08:45:00,
2013-06-07 01:50:00,52.9,48.2,29.85,SE,135,0.0,2.0,84,0.00,,---,0.00,VWS V14.01,2013-06-07 08:50:00,
2013-06-07 01:55:00,52.9,48.2,29.85,SSW,202,0.0,0.0,84,0.00,,---,0.00,VWS V14.01,2013-06-07 08:55:00,
2013-06-07 02:00:00,52.9,48.2,29.85,SW,225,0.0,1.3,84,0.00,,---,0.00,VWS V14.01,2013-06-07 09:00:00,
2013-06-07 02:05:00,52.9,48.2,29.85,North,0,0.0,0.0,84,0.00,,---,0.00,VWS V14.01,2013-06-07 09:05:00,
2013-06-07 02:10:00,53.1,48.4,29.85,ENE,68,1.6,2.2,84,0.00,,---,0.00,VWS V14.01,2013-06-07 09:10:00,
2013-06-07 02:15:00,52.7,48.3,29.85,WSW,248,0.0,0.0,85,0.00,,---,0.00,VWS V14.01,2013-06-07 09:15:00,
2013-06-07 02:20:00,52.5,48.2,29.85,NW,315,0.0,1.6,85,0.00,,---,0.00,VWS V14.01,2013-06-07 09:20:00,
2013-06-07 02:25:00,52.7,48.3,29.85,South,180,2.0,2.9,85,0.00,,---,0.00,VWS V14.01,2013-06-07 09:25:00,
2013-06-07 02:30:00,53.1,48.7,29.85,South,180,1.1,1.3,85,0.00,,---,0.00,VWS V14.01,2013-06-07 09:30:00,
2013-06-07 02:35:00,52.5,48.2,29.85,SSE,158,0.0,1.6,85,0.00,,---,0.00,VWS V14.01,2013-06-07 09:35:00,
2013-06-07 02:40:00,52.5,48.2,29.85,NW,315,0.0,2.2,85,0.00,,---,0.00,VWS V14.01,2013-06-07 09:40:00,
2013-06-07 02:45:00,53.1,48.7,29.85,West,270,0.0,1.1,85,0.00,,---,0.00,VWS V14.01,2013-06-07 09:45:00,
2013-06-07 02:50:00,52.9,48.5,29.85,West,270,1.1,1.1,85,0.00,,---,0.00,VWS V14.01,2013-06-07 09:50:00,
2013-06-07 02:55:00,52.5,48.2,29.85,SSW,202,1.1,1.1,85,0.00,,---,0.00,VWS V14.01,2013-06-07 09:55:00,
2013-06-07 03:00:00,52.2,48.1,29.85,WNW,292,0.0,0.9,86,0.00,,---,0.00,VWS V14.01,2013-06-07 10:00:00,
2013-06-07 03:05:00,52.0,47.9,29.85,WNW,292,0.0,0.0,86,0.00,,---,0.00,VWS V14.01,2013-06-07 10:05:00,
2013-06-07 03:10:00,52.0,47.9,29.85,South,180,1.3,1.3,86,0.00,,---,0.00,VWS V14.01,2013-06-07 10:10:00,
2013-06-07 03:15:00,52.0,47.9,29.85,NE,45,0.9,1.1,86,0.00,,---,0.00,VWS V14.01,2013-06-07 10:15:00,
2013-06-07 03:20:00,52.3,48.3,29.85,West,270,0.0,0.0,86,0.00,,---,0.00,VWS V14.01,2013-06-07 10:20:00,
2013-06-07 03:25:00,52.5,48.8,29.85,SSW,202,0.0,0.0,87,0.00,,---,0.00,VWS V14.01,2013-06-07 10:25:00,
2013-06-07 03:30:00,52.3,48.6,29.85,West,270,1.3,1.3,87,0.00,,---,0.00,VWS V14.01,2013-06-07 10:30:00,
2013-06-07 03:35:00,52.9,48.8,29.85,NNW,338,0.9,1.6,86,0.00,,---,0.00,VWS V14.01,2013-06-07 10:35:00,
2013-06-07 03:40:00,52.7,48.6,29.85,NNW,338,2.0,2.0,86,0.00,,---,0.00,VWS V14.01,2013-06-07 10:40:00,
2013-06-07 03:46:00,52.7,48.3,29.85,NNW,338,0.9,1.6,85,0.00,,---,0.00,VWS V14.01,2013-06-07 10:46:00,
2013-06-07 03:51:00,52.5,48.5,29.85,NNW,338,0.9,1.6,86,0.00,,---,0.00,VWS V14.01,2013-06-07 10:51:00,
2013-06-07 03:56:00,52.9,48.8,29.85,North,0,0.0,0.9,86,0.00,,---,0.00,VWS V14.01,2013-06-07 10:56:00,
2013-06-07 04:01:00,52.7,48.3,29.85,SW,225,0.0,0.0,85,0.00,,---,0.00,VWS V14.01,2013-06-07 11:01:00,
2013-06-07 04:06:00,52.2,48.1,29.82,West,270,0.0,0.0,86,0.00,,---,0.00,VWS V14.01,2013-06-07 11:06:00,
2013-06-07 04:11:00,52.2,48.1,29.82,WNW,292,0.0,0.0,86,0.00,,---,0.00,VWS V14.01,2013-06-07 11:11:00,
2013-06-07 04:16:00,52.2,48.1,29.82,SW,225,0.0,1.6,86,0.00,,---,0.00,VWS V14.01,2013-06-07 11:16:00,
2013-06-07 04:21:00,52.0,48.2,29.85,West,270,0.0,2.0,87,0.00,,---,0.00,VWS V14.01,2013-06-07 11:21:00,
2013-06-07 04:26:00,52.3,48.6,29.85,West,270,0.0,2.2,87,0.00,,---,0.00,VWS V14.01,2013-06-07 11:26:00,
2013-06-07 04:31:00,52.2,48.1,29.85,NW,315,0.9,2.5,86,0.00,,---,0.00,VWS V14.01,2013-06-07 11:31:00,
2013-06-07 04:36:00,52.0,47.9,29.82,WNW,292,1.6,2.7,86,0.00,,---,0.00,VWS V14.01,2013-06-07 11:36:00,
2013-06-07 04:42:00,52.3,48.6,29.82,ENE,68,0.0,1.3,87,0.00,,---,0.00,VWS V14.01,2013-06-07 11:42:00,
2013-06-07 04:47:00,52.5,48.8,29.82,NW,315,0.0,1.6,87,0.00,,---,0.00,VWS V14.01,2013-06-07 11:47:00,
2013-06-07 04:52:00,52.2,48.4,29.82,NW,315,2.0,2.0,87,0.00,,---,0.00,VWS V14.01,2013-06-07 11:52:00,
2013-06-07 04:57:00,52.2,48.4,29.82,NW,315,0.0,2.0,87,0.00,,---,0.00,VWS V14.01,2013-06-07 11:57:00,
2013-06-07 05:02:00,52.2,48.4,29.82,NNE,22,0.0,0.0,87,0.00,,---,0.00,VWS V14.01,2013-06-07 12:02:00,
2013-06-07 05:07:00,52.5,49.1,29.82,North,0,0.0,0.9,88,0.00,,---,0.00,VWS V14.01,2013-06-07 12:07:00,
2013-06-07 05:12:00,52.2,48.4,29.82,North,0,0.0,0.0,87,0.00,,---,0.00,VWS V14.01,2013-06-07 12:12:00,
2013-06-07 05:17:00,52.3,48.6,29.82,North,0,0.0,1.3,87,0.00,,---,0.00,VWS V14.01,2013-06-07 12:17:00,
2013-06-07 05:22:00,52.2,48.4,29.82,ENE,68,1.6,2.5,87,0.00,,---,0.00,VWS V14.01,2013-06-07 12:22:00,
2013-06-07 05:28:00,52.0,48.2,29.82,North,0,0.0,0.0,87,0.00,,---,0.00,VWS V14.01,2013-06-07 12:28:00,
2013-06-07 05:33:00,52.3,48.9,29.82,ENE,68,1.6,1.6,88,0.00,,---,0.00,VWS V14.01,2013-06-07 12:33:00,
2013-06-07 05:38:00,52.3,48.9,29.85,ENE,68,1.1,1.1,88,0.00,,---,0.00,VWS V14.01,2013-06-07 12:38:00,
2013-06-07 05:43:00,52.5,49.1,29.85,ENE,68,1.1,1.1,88,0.00,,---,0.00,VWS V14.01,2013-06-07 12:43:00,
2013-06-07 05:48:00,52.5,48.8,29.85,NNE,22,0.0,0.0,87,0.00,,---,0.00,VWS V14.01,2013-06-07 12:48:00,
2013-06-07 05:53:00,52.3,48.9,29.85,SE,135,0.0,0.0,88,0.00,,---,0.00,VWS V14.01,2013-06-07 12:53:00,
2013-06-07 05:58:00,52.5,49.1,29.85,East,90,1.6,2.7,88,0.00,,---,0.00,VWS V14.01,2013-06-07 12:58:00,
2013-06-07 06:03:00,52.5,49.1,29.85,ENE,68,0.0,0.0,88,0.00,,---,0.00,VWS V14.01,2013-06-07 13:03:00,
2013-06-07 06:08:00,52.3,48.9,29.85,ENE,68,0.0,0.0,88,0.00,,---,0.00,VWS V14.01,2013-06-07 13:08:00,
2013-06-07 06:13:00,52.5,49.1,29.85,ENE,68,2.5,2.5,88,0.00,,---,0.00,VWS V14.01,2013-06-07 13:13:00,
2013-06-07 06:18:00,52.5,49.1,29.85,East,90,1.3,1.3,88,0.00,,---,0.00,VWS V14.01,2013-06-07 13:18:00,
2013-06-07 06:23:00,52.5,49.1,29.85,ESE,112,1.3,1.6,88,0.00,,---,0.00,VWS V14.01,2013-06-07 13:23:00,
2013-06-07 06:28:00,52.2,49.0,29.85,SE,135,1.3,1.3,89,0.00,,---,0.00,VWS V14.01,2013-06-07 13:28:00,
2013-06-07 06:33:00,52.5,49.4,29.85,East,90,2.0,2.0,89,0.00,,---,0.00,VWS V14.01,2013-06-07 13:33:00,
2013-06-07 06:38:00,52.9,49.4,29.85,South,180,0.0,0.0,88,0.00,,---,0.00,VWS V14.01,2013-06-07 13:38:00,
2013-06-07 06:43:00,52.9,49.4,29.85,ESE,112,0.0,0.0,88,0.00,,---,0.00,VWS V14.01,2013-06-07 13:43:00,
2013-06-07 06:48:00,53.2,49.8,29.85,ENE,68,0.0,0.0,88,0.00,,---,0.00,VWS V14.01,2013-06-07 13:48:00,
2013-06-07 06:53:00,53.1,49.6,29.85,NW,315,0.0,0.9,88,0.00,,---,0.00,VWS V14.01,2013-06-07 13:53:00,
2013-06-07 06:58:00,53.1,49.6,29.85,East,90,2.2,2.2,88,0.00,,---,0.00,VWS V14.01,2013-06-07 13:58:00,
2013-06-07 07:03:00,52.9,49.7,29.85,SW,225,0.9,1.6,89,0.00,,---,0.00,VWS V14.01,2013-06-07 14:03:00,
2013-06-07 07:08:00,52.9,49.7,29.85,SW,225,1.6,1.6,89,0.00,,---,0.00,VWS V14.01,2013-06-07 14:08:00,
2013-06-07 07:13:00,52.9,49.7,29.85,NW,315,1.3,1.3,89,0.00,,---,0.00,VWS V14.01,2013-06-07 14:13:00,
2013-06-07 07:18:00,53.2,50.1,29.85,NW,315,0.0,2.2,89,0.00,,---,0.00,VWS V14.01,2013-06-07 14:18:00,
2013-06-07 07:24:00,53.1,49.6,29.85,West,270,1.6,2.5,88,0.00,,---,0.00,VWS V14.01,2013-06-07 14:24:00,
2013-06-07 07:29:00,53.1,49.9,29.85,West,270,0.0,2.0,89,0.00,,---,0.00,VWS V14.01,2013-06-07 14:29:00,
2013-06-07 07:34:00,53.4,50.3,29.85,NNE,22,0.0,0.0,89,0.00,,---,0.00,VWS V14.01,2013-06-07 14:34:00,
2013-06-07 07:39:00,53.4,50.3,29.85,NW,315,1.6,1.6,89,0.00,,---,0.00,VWS V14.01,2013-06-07 14:39:00,
2013-06-07 07:44:00,53.8,50.6,29.85,NNE,22,0.0,0.0,89,0.00,,---,0.00,VWS V14.01,2013-06-07 14:44:00,
2013-06-07 07:49:00,53.2,50.1,29.85,NNW,338,0.0,2.2,89,0.00,,---,0.00,VWS V14.01,2013-06-07 14:49:00,
2013-06-07 07:54:00,53.8,50.3,29.85,NW,315,0.0,0.0,88,0.00,,---,0.00,VWS V14.01,2013-06-07 14:54:00,
2013-06-07 07:59:00,54.1,50.7,29.85,West,270,1.3,1.3,88,0.00,,---,0.00,VWS V14.01,2013-06-07 14:59:00,
2013-06-07 08:04:00,54.5,51.0,29.85,WNW,292,2.9,2.9,88,0.00,,---,0.00,VWS V14.01,2013-06-07 15:04:00,
2013-06-07 08:09:00,54.3,50.8,29.85,NW,315,2.0,2.7,88,0.00,,---,0.00,VWS V14.01,2013-06-07 15:09:00,
2013-06-07 08:14:00,54.3,50.8,29.85,SW,225,2.2,2.2,88,0.00,,---,0.00,VWS V14.01,2013-06-07 15:14:00,
2013-06-07 08:19:00,54.5,51.0,29.85,South,180,1.1,1.6,88,0.00,,---,0.00,VWS V14.01,2013-06-07 15:19:00,
2013-06-07 08:24:00,54.7,51.5,29.85,South,180,1.6,2.5,89,0.00,,---,0.00,VWS V14.01,2013-06-07 15:24:00,
2013-06-07 08:29:00,55.0,51.6,29.85,NNW,338,3.1,3.1,88,0.00,,---,0.00,VWS V14.01,2013-06-07 15:29:00,
2013-06-07 08:34:00,55.6,51.8,29.85,ESE,112,0.0,1.1,87,0.00,,---,0.00,VWS V14.01,2013-06-07 15:34:00,
2013-06-07 08:39:00,55.6,51.8,29.85,NW,315,2.5,2.7,87,0.00,,---,0.00,VWS V14.01,2013-06-07 15:39:00,
2013-06-07 08:44:00,55.4,51.6,29.85,WNW,292,1.3,2.7,87,0.00,,---,0.00,VWS V14.01,2013-06-07 15:44:00,
2013-06-07 08:49:00,56.3,52.2,29.85,NW,315,1.3,3.1,86,0.00,,---,0.00,VWS V14.01,2013-06-07 15:49:00,
2013-06-07 08:54:00,56.8,52.7,29.85,SW,225,2.5,2.5,86,0.00,,---,0.00,VWS V14.01,2013-06-07 15:54:00,
2013-06-07 08:59:00,56.5,52.0,29.85,NNW,338,1.1,1.1,85,0.00,,---,0.00,VWS V14.01,2013-06-07 15:59:00,
2013-06-07 09:04:00,57.2,52.7,29.85,SE,135,1.1,1.3,85,0.00,,---,0.00,VWS V14.01,2013-06-07 16:04:00,
2013-06-07 09:09:00,57.9,53.4,29.85,NW,315,2.7,4.0,85,0.00,,---,0.00,VWS V14.01,2013-06-07 16:09:00,
2013-06-07 09:14:00,58.1,53.3,29.85,NNW,338,0.9,2.5,84,0.00,,---,0.00,VWS V14.01,2013-06-07 16:14:00,
2013-06-07 09:19:00,58.6,53.8,29.85,WNW,292,2.7,2.7,84,0.00,,---,0.00,VWS V14.01,2013-06-07 16:19:00,
2013-06-07 09:24:00,59.2,54.0,29.85,NW,315,2.0,2.5,83,0.00,,---,0.00,VWS V14.01,2013-06-07 16:24:00,
2013-06-07 09:29:00,59.5,54.0,29.85,NNW,338,3.1,4.3,82,0.00,,---,0.00,VWS V14.01,2013-06-07 16:29:00,
2013-06-07 09:34:00,59.9,54.4,29.85,North,0,3.4,3.4,82,0.00,,---,0.00,VWS V14.01,2013-06-07 16:34:00,
2013-06-07 09:39:00,60.6,55.1,29.85,NNW,338,3.8,4.9,82,0.00,,---,0.00,VWS V14.01,2013-06-07 16:39:00,
2013-06-07 09:45:00,60.8,54.6,29.85,West,270,4.5,4.5,80,0.00,,---,0.00,VWS V14.01,2013-06-07 16:45:00,
2013-06-07 09:50:00,61.0,54.8,29.85,NNW,338,1.6,4.9,80,0.00,,---,0.00,VWS V14.01,2013-06-07 16:50:00,
2013-06-07 09:55:00,61.3,55.1,29.85,West,270,0.9,3.1,80,0.00,,---,0.00,VWS V14.01,2013-06-07 16:55:00,
2013-06-07 10:00:00,61.5,55.0,29.85,SW,225,0.0,2.0,79,0.00,,---,0.00,VWS V14.01,2013-06-07 17:00:00,
2013-06-07 10:05:00,61.9,55.3,29.82,WNW,292,3.6,3.6,79,0.00,,---,0.00,VWS V14.01,2013-06-07 17:05:00,
2013-06-07 10:10:00,62.2,55.0,29.82,ENE,68,2.0,2.5,77,0.00,,---,0.00,VWS V14.01,2013-06-07 17:10:00,
2013-06-07 10:15:00,62.2,55.0,29.82,NW,315,3.6,3.6,77,0.00,,---,0.00,VWS V14.01,2013-06-07 17:15:00,
2013-06-07 10:20:00,62.8,55.1,29.82,SW,225,3.6,3.6,76,0.00,,---,0.00,VWS V14.01,2013-06-07 17:20:00,
2013-06-07 10:25:00,63.3,55.6,29.82,WNW,292,2.0,2.7,76,0.00,,---,0.00,VWS V14.01,2013-06-07 17:25:00,
2013-06-07 10:30:00,63.9,56.2,29.82,NW,315,2.0,5.6,76,0.00,,---,0.00,VWS V14.01,2013-06-07 17:30:00,
2013-06-07 10:35:00,64.8,56.7,29.85,NNW,338,1.3,5.6,75,0.00,,---,0.00,VWS V14.01,2013-06-07 17:35:00,
2013-06-07 10:41:00,64.8,55.9,29.85,West,270,3.6,3.6,73,0.00,,---,0.00,VWS V14.01,2013-06-07 17:41:00,
2013-06-07 10:46:00,65.3,56.0,29.85,NNW,338,1.3,3.4,72,0.00,,---,0.00,VWS V14.01,2013-06-07 17:46:00,
2013-06-07 10:51:00,66.0,57.1,29.82,NNW,338,3.1,3.6,73,0.00,,---,0.00,VWS V14.01,2013-06-07 17:51:00,
2013-06-07 10:56:00,66.4,57.5,29.82,NW,315,4.3,4.3,73,0.00,,---,0.00,VWS V14.01,2013-06-07 17:56:00,
2013-06-07 11:02:00,66.7,57.4,29.82,West,270,2.9,3.8,72,0.00,,---,0.00,VWS V14.01,2013-06-07 18:02:00,
2013-06-07 11:07:00,67.1,57.0,29.82,NNW,338,2.7,4.3,70,0.00,,---,0.00,VWS V14.01,2013-06-07 18:07:00,
2013-06-07 11:12:00,67.3,57.6,29.82,SW,225,2.9,2.9,71,0.00,,---,0.00,VWS V14.01,2013-06-07 18:12:00,
2013-06-07 11:17:00,67.8,57.7,29.82,WNW,292,2.5,3.6,70,0.00,,---,0.00,VWS V14.01,2013-06-07 18:17:00,
2013-06-07 11:22:00,68.0,57.9,29.82,West,270,2.9,3.6,70,0.00,,---,0.00,VWS V14.01,2013-06-07 18:22:00,
2013-06-07 11:27:00,68.9,58.3,29.82,NW,315,2.5,2.5,69,0.00,,---,0.00,VWS V14.01,2013-06-07 18:27:00,
2013-06-07 11:33:00,69.4,58.8,29.82,NW,315,1.6,1.6,69,0.00,,---,0.00,VWS V14.01,2013-06-07 18:33:00,
2013-06-07 11:38:00,69.8,58.8,29.82,NNW,338,0.9,0.9,68,0.00,,---,0.00,VWS V14.01,2013-06-07 18:38:00,
2013-06-07 11:43:00,70.3,58.9,29.82,NNW,338,1.1,1.3,67,0.00,,---,0.00,VWS V14.01,2013-06-07 18:43:00,
2013-06-07 11:49:00,70.7,58.4,29.82,NNE,22,1.1,2.0,65,0.00,,---,0.00,VWS V14.01,2013-06-07 18:49:00,
2013-06-07 11:55:00,71.2,59.3,29.82,WNW,292,2.9,3.8,66,0.00,,---,0.00,VWS V14.01,2013-06-07 18:55:00,
2013-06-07 12:00:00,71.8,59.4,29.82,NW,315,1.1,2.2,65,0.00,,---,0.00,VWS V14.01,2013-06-07 19:00:00,
2013-06-07 12:07:00,72.5,60.5,29.82,WNW,292,1.3,5.4,66,0.00,,---,0.00,VWS V14.01,2013-06-07 19:07:00,
2013-06-07 12:12:00,73.0,60.2,29.82,NW,315,2.0,6.0,64,0.00,,---,0.00,VWS V14.01,2013-06-07 19:12:00,
2013-06-07 12:17:00,73.2,63.7,29.82,NE,45,2.5,3.8,72,0.00,,---,0.00,VWS V14.01,2013-06-07 19:17:00,
2013-06-07 12:22:00,73.2,67.4,29.82,West,270,2.0,2.5,82,0.00,,---,0.00,VWS V14.01,2013-06-07 19:22:00,
2013-06-07 12:27:00,73.4,67.9,29.82,WNW,292,2.5,2.5,83,0.00,,---,0.00,VWS V14.01,2013-06-07 19:27:00,
2013-06-07 12:32:00,73.0,67.6,29.82,NE,45,2.5,2.5,83,0.00,,---,0.00,VWS V14.01,2013-06-07 19:32:00,
2013-06-07 12:38:00,73.9,69.5,29.82,NNW,338,1.6,1.6,86,0.00,,---,0.00,VWS V14.01,2013-06-07 19:38:00,
2013-06-07 12:43:00,73.9,69.5,29.82,West,270,3.8,3.8,86,0.00,,---,0.00,VWS V14.01,2013-06-07 19:43:00,
2013-06-07 12:48:00,74.8,70.7,29.82,West,270,2.0,2.5,87,0.00,,---,0.00,VWS V14.01,2013-06-07 19:48:00,
2013-06-07 12:53:00,75.6,71.1,29.79,NNE,22,3.4,5.8,86,0.00,,---,0.00,VWS V14.01,2013-06-07 19:53:00,
2013-06-07 12:58:00,75.6,70.4,29.79,NNW,338,3.6,3.6,84,0.00,,---,0.00,VWS V14.01,2013-06-07 19:58:00,
2013-06-07 13:04:00,76.3,72.5,29.79,NW,315,3.6,5.4,88,0.00,,---,0.00,VWS V14.01,2013-06-07 20:04:00,
2013-06-07 13:09:00,76.8,72.7,29.79,North,0,1.1,3.4,87,0.00,,---,0.00,VWS V14.01,2013-06-07 20:09:00,
2013-06-07 13:14:00,77.4,72.5,29.79,NNW,338,1.6,3.6,85,0.00,,---,0.00,VWS V14.01,2013-06-07 20:14:00,
2013-06-07 13:19:00,77.9,72.7,29.79,West,270,2.2,2.9,84,0.00,,---,0.00,VWS V14.01,2013-06-07 20:19:00,
2013-06-07 13:25:00,78.3,70.8,29.79,West,270,2.9,3.6,78,0.00,,---,0.00,VWS V14.01,2013-06-07 20:25:00,
2013-06-07 13:30:00,78.6,74.1,29.79,WNW,292,6.5,6.5,86,0.00,,---,0.00,VWS V14.01,2013-06-07 20:30:00,
2013-06-07 13:37:00,79.5,75.3,29.79,NW,315,1.1,6.0,87,0.00,,---,0.00,VWS V14.01,2013-06-07 20:37:00,
2013-06-07 13:42:00,80.4,75.2,29.79,West,270,2.7,5.4,84,0.00,,---,0.00,VWS V14.01,2013-06-07 20:42:00,
2013-06-07 13:47:00,80.6,75.3,29.79,NW,315,2.7,5.6,84,0.00,,---,0.00,VWS V14.01,2013-06-07 20:47:00,
2013-06-07 13:52:00,80.8,75.1,29.79,NNE,22,3.8,3.8,83,0.00,,---,0.00,VWS V14.01,2013-06-07 20:52:00,
2013-06-07 13:57:00,81.3,74.6,29.79,West,270,4.0,4.3,80,0.00,,---,0.00,VWS V14.01,2013-06-07 20:57:00,
2013-06-07 14:02:00,81.7,75.3,29.79,NNW,338,1.1,1.1,81,0.00,,---,0.00,VWS V14.01,2013-06-07 21:02:00,
2013-06-07 14:07:00,82.6,76.5,29.79,NNW,338,3.8,3.8,82,0.00,,---,0.00,VWS V14.01,2013-06-07 21:07:00,
2013-06-07 14:12:00,82.6,75.4,29.79,West,270,3.4,3.4,79,0.00,,---,0.00,VWS V14.01,2013-06-07 21:12:00,
2013-06-07 14:18:00,83.7,76.5,29.79,West,270,4.3,4.3,79,0.00,,---,0.00,VWS V14.01,2013-06-07 21:18:00,
2013-06-07 14:24:00,84.7,77.5,29.79,NW,315,2.7,4.9,79,0.00,,---,0.00,VWS V14.01,2013-06-07 21:24:00,
2013-06-07 14:29:00,85.3,78.0,29.79,West,270,3.8,3.8,79,0.00,,---,0.00,VWS V14.01,2013-06-07 21:29:00,
2013-06-07 14:34:00,85.1,77.9,29.79,South,180,4.5,4.5,79,0.00,,---,0.00,VWS V14.01,2013-06-07 21:34:00,
2013-06-07 14:39:00,85.5,75.4,29.79,North,0,4.0,4.0,72,0.00,,---,0.00,VWS V14.01,2013-06-07 21:39:00,
2013-06-07 14:44:00,86.0,77.2,29.79,NW,315,2.9,5.8,75,0.00,,---,0.00,VWS V14.01,2013-06-07 21:44:00,
2013-06-07 14:49:00,87.1,75.7,29.79,NW,315,2.7,3.1,69,0.00,,---,0.00,VWS V14.01,2013-06-07 21:49:00,
2013-06-07 14:57:00,87.3,74.1,29.79,NW,315,2.9,4.0,65,0.00,,---,0.00,VWS V14.01,2013-06-07 21:57:00,
2013-06-07 15:02:00,87.6,74.4,29.79,NNW,338,2.5,3.8,65,0.00,,---,0.00,VWS V14.01,2013-06-07 22:02:00,
2013-06-07 15:07:00,88.5,74.8,29.79,NW,315,4.3,4.3,64,0.00,,---,0.00,VWS V14.01,2013-06-07 22:07:00,
2013-06-07 15:14:00,89.6,71.8,29.76,West,270,4.7,4.7,56,0.00,,---,0.00,VWS V14.01,2013-06-07 22:14:00,
2013-06-07 15:19:00,90.0,68.8,29.76,NW,315,1.6,3.4,50,0.00,,---,0.00,VWS V14.01,2013-06-07 22:19:00,
2013-06-07 15:24:00,90.7,69.5,29.76,WNW,292,5.8,5.8,50,0.00,,---,0.00,VWS V14.01,2013-06-07 22:24:00,
2013-06-07 15:29:00,91.2,69.4,29.76,WNW,292,3.4,3.8,49,0.00,,---,0.00,VWS V14.01,2013-06-07 22:29:00,
2013-06-07 15:34:00,90.9,67.2,29.76,NNW,338,2.7,2.7,46,0.00,,---,0.00,VWS V14.01,2013-06-07 22:34:00,
2013-06-07 15:40:00,91.4,66.4,29.76,NW,315,1.1,5.4,44,0.00,,---,0.00,VWS V14.01,2013-06-07 22:40:00,
2013-06-07 15:45:00,91.8,67.4,29.76,NNW,338,3.1,5.8,45,0.00,,---,0.00,VWS V14.01,2013-06-07 22:45:00,
2013-06-07 15:50:00,91.9,66.3,29.76,North,0,2.7,5.8,43,0.00,,---,0.00,VWS V14.01,2013-06-07 22:50:00,
2013-06-07 15:55:00,92.5,67.4,29.76,NW,315,3.8,3.8,44,0.00,,---,0.00,VWS V14.01,2013-06-07 22:55:00,
2013-06-07 16:00:00,92.7,67.6,29.76,West,270,5.6,8.1,44,0.00,,---,0.00,VWS V14.01,2013-06-07 23:00:00,
2013-06-07 16:07:00,92.8,66.4,29.76,NW,315,3.4,5.8,42,0.00,,---,0.00,VWS V14.01,2013-06-07 23:07:00,
2013-06-07 16:12:00,92.8,67.1,29.76,West,270,1.1,4.0,43,0.00,,---,0.00,VWS V14.01,2013-06-07 23:12:00,
2013-06-07 16:17:00,92.8,65.0,29.76,NW,315,2.2,4.7,40,0.00,,---,0.00,VWS V14.01,2013-06-07 23:17:00,
2013-06-07 16:23:00,93.4,62.5,29.74,South,180,2.0,2.7,36,0.00,,---,0.00,VWS V14.01,2013-06-07 23:23:00,
2013-06-07 16:28:00,93.4,65.5,29.74,WNW,292,3.6,3.6,40,0.00,,---,0.00,VWS V14.01,2013-06-07 23:28:00,
2013-06-07 16:33:00,93.4,64.0,29.74,West,270,3.8,3.8,38,0.00,,---,0.00,VWS V14.01,2013-06-07 23:33:00,
2013-06-07 16:38:00,93.4,64.7,29.74,West,270,2.9,3.4,39,0.00,,---,0.00,VWS V14.01,2013-06-07 23:38:00,
2013-06-07 16:44:00,93.6,64.9,29.74,WNW,292,2.2,4.3,39,0.00,,---,0.00,VWS V14.01,2013-06-07 23:44:00,
2013-06-07 16:49:00,94.3,64.0,29.74,NW,315,3.4,5.4,37,0.00,,---,0.00,VWS V14.01,2013-06-07 23:49:00,
2013-06-07 16:54:00,94.1,64.6,29.74,WNW,292,5.6,5.6,38,0.00,,---,0.00,VWS V14.01,2013-06-07 23:54:00,
2013-06-07 16:59:00,94.5,64.2,29.74,NNW,338,4.3,5.8,37,0.00,,---,0.00,VWS V14.01,2013-06-07 23:59:00,
2013-06-07 17:04:00,93.9,62.1,29.74,NW,315,3.4,3.4,35,0.00,,---,0.00,VWS V14.01,2013-06-08 00:04:00,
2013-06-07 17:09:00,93.7,62.8,29.74,West,270,4.7,4.7,36,0.00,,---,0.00,VWS V14.01,2013-06-08 00:09:00,
2013-06-07 17:15:00,93.6,63.4,29.74,North,0,1.1,3.1,37,0.00,,---,0.00,VWS V14.01,2013-06-08 00:15:00,
2013-06-07 17:20:00,93.6,62.6,29.74,NW,315,6.0,6.0,36,0.00,,---,0.00,VWS V14.01,2013-06-08 00:20:00,
2013-06-07 17:25:00,93.4,61.7,29.74,NW,315,0.9,3.8,35,0.00,,---,0.00,VWS V14.01,2013-06-08 00:25:00,
2013-06-07 17:30:00,93.4,62.5,29.74,North,0,3.6,3.6,36,0.00,,---,0.00,VWS V14.01,2013-06-08 00:30:00,
2013-06-07 17:35:00,93.4,63.2,29.74,NW,315,3.4,4.5,37,0.00,,---,0.00,VWS V14.01,2013-06-08 00:35:00,
2013-06-07 17:40:00,93.4,63.2,29.74,NNE,22,1.1,3.6,37,0.00,,---,0.00,VWS V14.01,2013-06-08 00:40:00,
2013-06-07 17:45:00,92.7,63.4,29.74,NNW,338,1.3,3.1,38,0.00,,---,0.00,VWS V14.01,2013-06-08 00:45:00,
2013-06-07 17:51:00,91.8,62.6,29.74,NNW,338,2.0,3.8,38,0.00,,---,0.00,VWS V14.01,2013-06-08 00:51:00,
2013-06-07 17:56:00,91.4,62.2,29.74,North,0,3.4,3.6,38,0.00,,---,0.00,VWS V14.01,2013-06-08 00:56:00,
2013-06-07 18:02:00,91.0,61.2,29.74,North,0,2.0,4.9,37,0.00,,---,0.00,VWS V14.01,2013-06-08 01:02:00,
2013-06-07 18:07:00,90.9,61.8,29.71,NW,315,3.8,3.8,38,0.00,,---,0.00,VWS V14.01,2013-06-08 01:07:00,
2013-06-07 18:12:00,90.7,61.6,29.71,NNW,338,2.7,4.3,38,0.00,,---,0.00,VWS V14.01,2013-06-08 01:12:00,
2013-06-07 18:17:00,90.3,60.5,29.71,NNW,338,3.8,3.8,37,0.00,,---,0.00,VWS V14.01,2013-06-08 01:17:00,
2013-06-07 18:22:00,89.8,60.1,29.71,NNE,22,2.2,3.8,37,0.00,,---,0.00,VWS V14.01,2013-06-08 01:22:00,
2013-06-07 18:28:00,89.4,59.7,29.71,North,0,4.0,4.0,37,0.00,,---,0.00,VWS V14.01,2013-06-08 01:28:00,
2013-06-07 18:33:00,88.9,59.3,29.71,NW,315,2.0,3.1,37,0.00,,---,0.00,VWS V14.01,2013-06-08 01:33:00,
2013-06-07 18:39:00,88.2,57.9,29.71,NNW,338,1.3,4.0,36,0.00,,---,0.00,VWS V14.01,2013-06-08 01:39:00,
2013-06-07 18:45:00,87.6,58.9,29.71,North,0,2.0,5.4,38,0.00,,---,0.00,VWS V14.01,2013-06-08 01:45:00,
2013-06-07 18:51:00,86.9,58.3,29.71,NNE,22,4.9,4.9,38,0.00,,---,0.00,VWS V14.01,2013-06-08 01:51:00,
2013-06-07 18:56:00,86.5,57.9,29.71,NNW,338,1.6,2.9,38,0.00,,---,0.00,VWS V14.01,2013-06-08 01:56:00,
2013-06-07 19:01:00,85.8,58.0,29.71,NW,315,3.4,6.0,39,0.00,,---,0.00,VWS V14.01,2013-06-08 02:01:00,
2013-06-07 19:06:00,85.3,57.5,29.71,NW,315,3.6,3.6,39,0.00,,---,0.00,VWS V14.01,2013-06-08 02:06:00,
2013-06-07 19:11:00,84.6,56.9,29.71,NW,315,1.6,3.4,39,0.00,,---,0.00,VWS V14.01,2013-06-08 02:11:00,
2013-06-07 19:16:00,84.2,56.6,29.71,NW,315,3.6,3.6,39,0.00,,---,0.00,VWS V14.01,2013-06-08 02:16:00,
2013-06-07 19:23:00,84.0,57.1,29.71,NNW,338,2.2,3.1,40,0.00,,---,0.00,VWS V14.01,2013-06-08 02:23:00,
2013-06-07 19:28:00,83.5,56.6,29.71,NW,315,2.0,2.0,40,0.00,,---,0.00,VWS V14.01,2013-06-08 02:28:00,
2013-06-07 19:33:00,83.1,56.3,29.71,North,0,3.8,3.8,40,0.00,,---,0.00,VWS V14.01,2013-06-08 02:33:00,
2013-06-07 19:38:00,82.4,55.7,29.71,NNW,338,2.7,2.7,40,0.00,,---,0.00,VWS V14.01,2013-06-08 02:38:00,
2013-06-07 19:44:00,82.0,56.0,29.71,NNW,338,2.5,2.5,41,0.00,,---,0.00,VWS V14.01,2013-06-08 02:44:00,
2013-06-07 19:49:00,81.5,55.5,29.71,NNW,338,2.5,2.5,41,0.00,,---,0.00,VWS V14.01,2013-06-08 02:49:00,
2013-06-07 19:54:00,81.0,55.7,29.71,North,0,2.7,2.7,42,0.00,,---,0.00,VWS V14.01,2013-06-08 02:54:00,
2013-06-07 19:59:00,80.6,54.8,29.71,North,0,2.5,2.7,41,0.00,,---,0.00,VWS V14.01,2013-06-08 02:59:00,
2013-06-07 20:07:00,79.2,54.1,29.71,North,0,2.2,2.2,42,0.00,,---,0.00,VWS V14.01,2013-06-08 03:07:00,
2013-06-07 20:13:00,78.4,54.1,29.71,NNW,338,1.3,1.3,43,0.00,,---,0.00,VWS V14.01,2013-06-08 03:13:00,
2013-06-07 20:18:00,77.9,53.6,29.71,NW,315,1.3,1.6,43,0.00,,---,0.00,VWS V14.01,2013-06-08 03:18:00,
2013-06-07 20:23:00,77.2,53.0,29.71,NNW,338,1.6,1.6,43,0.00,,---,0.00,VWS V14.01,2013-06-08 03:23:00,
2013-06-07 20:29:00,76.3,53.4,29.71,NNE,22,1.3,2.2,45,0.00,,---,0.00,VWS V14.01,2013-06-08 03:29:00,
2013-06-07 20:34:00,75.7,52.9,29.71,NNW,338,0.0,0.0,45,0.00,,---,0.00,VWS V14.01,2013-06-08 03:34:00,
2013-06-07 20:40:00,75.0,52.9,29.71,NNW,338,1.1,1.1,46,0.00,,---,0.00,VWS V14.01,2013-06-08 03:40:00,
2013-06-07 20:45:00,74.7,53.1,29.71,NNE,22,0.9,2.5,47,0.00,,---,0.00,VWS V14.01,2013-06-08 03:45:00,
2013-06-07 20:50:00,74.3,53.4,29.71,North,0,1.1,2.0,48,0.00,,---,0.00,VWS V14.01,2013-06-08 03:50:00,
2013-06-07 20:55:00,73.9,53.0,29.71,NNW,338,0.0,0.0,48,0.00,,---,0.00,VWS V14.01,2013-06-08 03:55:00,
2013-06-07 21:01:00,72.9,52.6,29.71,NNW,338,0.0,0.0,49,0.00,,---,0.00,VWS V14.01,2013-06-08 04:01:00,
2013-06-07 21:02:00,72.9,52.6,29.71,NNW,338,0.0,0.0,49,0.00,,---,0.00,VWS V14.01,2013-06-08 04:02:00,
2013-06-07 21:03:00,72.7,52.4,29.71,North,0,0.9,0.9,49,0.00,,---,0.00,VWS V14.01,2013-06-08 04:03:00,
2013-06-07 21:07:00,72.5,52.3,29.71,NNW,338,0.0,0.9,49,0.00,,---,0.00,VWS V14.01,2013-06-08 04:07:00,
2013-06-07 21:08:00,72.1,51.9,29.71,NNW,338,0.0,0.0,49,0.00,,---,0.00,VWS V14.01,2013-06-08 04:08:00,
2013-06-07 21:13:00,72.0,52.3,29.71,NNW,338,1.1,1.1,50,0.00,,---,0.00,VWS V14.01,2013-06-08 04:13:00,
2013-06-07 21:19:00,72.0,52.3,29.71,North,0,0.0,1.1,50,0.00,,---,0.00,VWS V14.01,2013-06-08 04:19:00,
2013-06-07 21:24:00,71.4,52.4,29.71,NNW,338,0.0,0.0,51,0.00,,---,0.00,VWS V14.01,2013-06-08 04:24:00,
2013-06-07 21:29:00,70.9,51.9,29.71,NNW,338,0.0,0.0,51,0.00,,---,0.00,VWS V14.01,2013-06-08 04:29:00,
2013-06-07 21:34:00,70.5,52.1,29.71,NNW,338,0.0,0.0,52,0.00,,---,0.00,VWS V14.01,2013-06-08 04:34:00,
2013-06-07 21:39:00,70.3,51.9,29.74,WNW,292,0.0,0.0,52,0.00,,---,0.00,VWS V14.01,2013-06-08 04:39:00,
2013-06-07 21:44:00,70.0,52.1,29.74,WNW,292,0.0,0.0,53,0.00,,---,0.00,VWS V14.01,2013-06-08 04:44:00,
2013-06-07 21:49:00,69.6,52.3,29.74,South,180,1.1,1.1,54,0.00,,---,0.00,VWS V14.01,2013-06-08 04:49:00,
2013-06-07 21:54:00,69.4,52.1,29.74,South,180,0.0,1.3,54,0.00,,---,0.00,VWS V14.01,2013-06-08 04:54:00,
2013-06-07 21:59:00,69.4,52.6,29.74,SE,135,0.0,0.0,55,0.00,,---,0.00,VWS V14.01,2013-06-08 04:59:00,
2013-06-07 22:04:00,69.3,52.4,29.74,NNE,22,0.0,0.0,55,0.00,,---,0.00,VWS V14.01,2013-06-08 05:04:00,
2013-06-07 22:09:00,69.3,52.9,29.74,NNE,22,0.0,0.0,56,0.00,,---,0.00,VWS V14.01,2013-06-08 05:09:00,
2013-06-07 22:14:00,69.1,52.7,29.74,North,0,0.0,0.0,56,0.00,,---,0.00,VWS V14.01,2013-06-08 05:14:00,
2013-06-07 22:19:00,68.7,52.9,29.74,NNW,338,0.0,0.0,57,0.00,,---,0.00,VWS V14.01,2013-06-08 05:19:00,
2013-06-07 22:24:00,68.5,52.7,29.74,West,270,0.0,0.0,57,0.00,,---,0.00,VWS V14.01,2013-06-08 05:24:00,
2013-06-07 22:29:00,68.5,53.2,29.74,North,0,0.0,0.0,58,0.00,,---,0.00,VWS V14.01,2013-06-08 05:29:00,
2013-06-07 22:34:00,68.4,53.0,29.74,NNW,338,0.0,0.0,58,0.00,,---,0.00,VWS V14.01,2013-06-08 05:34:00,
2013-06-07 22:39:00,68.2,52.9,29.74,ENE,68,0.0,0.0,58,0.00,,---,0.00,VWS V14.01,2013-06-08 05:39:00,
2013-06-07 22:44:00,67.8,52.5,29.74,South,180,2.2,2.2,58,0.00,,---,0.00,VWS V14.01,2013-06-08 05:44:00,
2013-06-07 22:49:00,67.6,52.8,29.74,South,180,0.0,0.0,59,0.00,,---,0.00,VWS V14.01,2013-06-08 05:49:00,
2013-06-07 22:54:00,67.6,53.3,29.74,SSE,158,0.0,0.0,60,0.00,,---,0.00,VWS V14.01,2013-06-08 05:54:00,
2013-06-07 22:59:00,67.6,53.3,29.74,SSE,158,0.0,0.0,60,0.00,,---,0.00,VWS V14.01,2013-06-08 05:59:00,
2013-06-07 23:04:00,67.5,53.1,29.74,North,0,0.0,0.0,60,0.00,,---,0.00,VWS V14.01,2013-06-08 06:04:00,
2013-06-07 23:09:00,67.1,53.2,29.74,West,270,0.0,0.0,61,0.00,,---,0.00,VWS V14.01,2013-06-08 06:09:00,
2013-06-07 23:15:00,66.9,53.0,29.74,SSE,158,0.0,1.1,61,0.00,,---,0.00,VWS V14.01,2013-06-08 06:15:00,
2013-06-07 23:20:00,66.9,53.0,29.74,SE,135,0.0,0.0,61,0.00,,---,0.00,VWS V14.01,2013-06-08 06:20:00,
2013-06-07 23:25:00,66.7,52.9,29.74,SE,135,0.0,0.0,61,0.00,,---,0.00,VWS V14.01,2013-06-08 06:25:00,
2013-06-07 23:30:00,66.7,52.9,29.74,East,90,1.1,1.6,61,0.00,,---,0.00,VWS V14.01,2013-06-08 06:30:00,
2013-06-07 23:35:00,66.6,52.7,29.74,ESE,112,0.0,1.1,61,0.00,,---,0.00,VWS V14.01,2013-06-08 06:35:00,
2013-06-07 23:40:00,66.7,52.9,29.74,East,90,0.0,0.0,61,0.00,,---,0.00,VWS V14.01,2013-06-08 06:40:00,
2013-06-07 23:45:00,66.7,52.9,29.74,East,90,0.0,0.0,61,0.00,,---,0.00,VWS V14.01,2013-06-08 06:45:00,
2013-06-07 23:50:00,66.6,52.7,29.74,East,90,0.0,0.0,61,0.00,,---,0.00,VWS V14.01,2013-06-08 06:50:00,
2013-06-07 23:55:00,66.2,52.8,29.74,NW,315,0.0,0.0,62,0.00,,---,0.00,VWS V14.01,2013-06-08 06:55:00,